Time;durP1;ratioP1;P1;durP2;ratioP2;P2;SDS_P1;SDS_P2;PMS_P1;PMS_P2;Temp;Humidity;BMP_temperature;BMP_pressure;BME280_temperature;BME280_humidity;BME280_pressure;Samples;Min_cycle;Max_cycle;Signal;HPM_P1;HPM_P2
2023/01/06 00:02:15;;;;;;;1.58;0.47;;;;;;;;;;5029856;28;20116;-74
2023/01/06 00:04:40;;;;;;;1.85;0.88;;;;;;;;;;5021387;28;20042;-75
2023/01/06 00:07:05;;;;;;;2.17;0.40;;;;;;;;;;5026305;28;20404;-75
2023/01/06 00:09:33;;;;;;;3.80;0.43;;;;;;;;;;5026508;28;20040;-75
2023/01/06 00:11:58;;;;;;;0.30;0.30;;;;;;;;;;5028823;28;20033;-75
2023/01/06 00:14:23;;;;;;;1.52;0.32;;;;;;;;;;5025504;28;20045;-75
2023/01/06 00:16:49;;;;;;;1.52;0.60;;;;;;;;;;5024855;28;20064;-75
2023/01/06 00:19:14;;;;;;;0.82;0.40;;;;;;;;;;5027366;28;20034;-75
2023/01/06 00:21:41;;;;;;;0.40;0.30;;;;;;;;;;5024537;28;20532;-74
2023/01/06 00:24:07;;;;;;;2.05;0.50;;;;;;;;;;5026766;28;20219;-74
2023/01/06 00:26:33;;;;;;;1.73;0.50;;;;;;;;;;5023328;28;20474;-75
2023/01/06 00:28:58;;;;;;;1.80;0.50;;;;;;;;;;5022773;28;20046;-74
2023/01/06 00:31:23;;;;;;;1.98;0.57;;;;;;;;;;5027684;28;20029;-75
2023/01/06 00:33:49;;;;;;;2.85;0.57;;;;;;;;;;5021807;28;20477;-74
2023/01/06 00:36:14;;;;;;;1.52;0.40;;;;;;;;;;5017107;28;20485;-76
2023/01/06 00:38:40;;;;;;;0.47;0.32;;;;;;;;;;5030493;28;20029;-75
2023/01/06 00:43:57;;;;;;;0.57;0.43;;;;;;;;;;5008269;28;20056;-75
2023/01/06 00:46:25;;;;;;;0.88;0.25;;;;;;;;;;5020758;28;20478;-75
2023/01/06 00:48:51;;;;;;;1.25;0.40;;;;;;;;;;5021708;28;20049;-74
2023/01/06 00:51:16;;;;;;;1.67;0.40;;;;;;;;;;5027123;28;20041;-75
2023/01/06 00:53:41;;;;;;;1.23;0.40;;;;;;;;;;5025831;28;20491;-75
2023/01/06 00:56:07;;;;;;;2.00;0.40;;;;;;;;;;5021116;28;20052;-74
2023/01/06 00:58:32;;;;;;;1.85;0.38;;;;;;;;;;5019129;28;20104;-75
2023/01/06 01:00:58;;;;;;;2.22;0.30;;;;;;;;;;5017666;28;20041;-74
2023/01/06 01:03:24;;;;;;;0.38;0.32;;;;;;;;;;5018480;28;20042;-75
2023/01/06 01:05:49;;;;;;;4.13;0.55;;;;;;;;;;5020020;28;20480;-74
2023/01/06 01:08:15;;;;;;;1.35;0.30;;;;;;;;;;5032170;28;20042;-75
2023/01/06 01:10:40;;;;;;;3.53;0.40;;;;;;;;;;5030823;28;20099;-75
2023/01/06 01:13:06;;;;;;;3.47;0.52;;;;;;;;;;5032643;28;20398;-74
2023/01/06 01:15:31;;;;;;;1.10;0.50;;;;;;;;;;5032586;28;20037;-74
2023/01/06 01:17:56;;;;;;;2.63;0.70;;;;;;;;;;5033423;28;20465;-74
2023/01/06 01:20:22;;;;;;;1.90;0.50;;;;;;;;;;5023563;28;20025;-75
2023/01/06 01:22:47;;;;;;;1.27;0.40;;;;;;;;;;5024524;28;20041;-74
2023/01/06 01:25:13;;;;;;;1.05;0.47;;;;;;;;;;5024623;28;20030;-75
2023/01/06 01:27:38;;;;;;;1.98;0.40;;;;;;;;;;5015639;28;20615;-75
2023/01/06 01:30:04;;;;;;;2.58;0.43;;;;;;;;;;5029011;28;20034;-75
2023/01/06 01:32:29;;;;;;;3.28;0.70;;;;;;;;;;5024148;28;20073;-74
2023/01/06 01:34:55;;;;;;;3.35;0.70;;;;;;;;;;5027931;28;20096;-75
2023/01/06 01:37:20;;;;;;;1.60;0.55;;;;;;;;;;5020302;28;20042;-75
2023/01/06 01:39:47;;;;;;;4.07;0.63;;;;;;;;;;5017570;28;20053;-74
2023/01/06 01:42:17;;;;;;;3.88;1.65;;;;;;;;;;5021839;28;20018;-74
2023/01/06 01:44:52;;;;;;;1.02;0.55;;;;;;;;;;5022411;28;20040;-74
2023/01/06 01:47:42;;;;;;;3.00;0.68;;;;;;;;;;5023197;28;20490;-74
2023/01/06 01:50:22;;;;;;;2.13;0.88;;;;;;;;;;5007850;28;20052;-74
2023/01/06 01:52:50;;;;;;;5.18;0.60;;;;;;;;;;5009281;28;20096;-74
2023/01/06 01:55:15;;;;;;;1.98;0.73;;;;;;;;;;5017305;28;20036;-74
2023/01/06 01:57:55;;;;;;;3.78;0.65;;;;;;;;;;5031600;28;20105;-75
2023/01/06 02:00:21;;;;;;;3.45;1.52;;;;;;;;;;5021169;28;20052;-74
2023/01/06 02:02:47;;;;;;;5.53;1.05;;;;;;;;;;5030473;28;20397;-74
2023/01/06 02:05:16;;;;;;;1.60;0.77;;;;;;;;;;5019321;28;20037;-75
2023/01/06 02:07:42;;;;;;;3.25;1.08;;;;;;;;;;5008344;28;20034;-74
2023/01/06 02:10:11;;;;;;;7.15;1.15;;;;;;;;;;5029509;28;20080;-74
2023/01/06 02:12:37;;;;;;;7.75;0.85;;;;;;;;;;5021867;28;20064;-75
2023/01/06 02:15:16;;;;;;;5.03;1.08;;;;;;;;;;5029555;28;20048;-75
2023/01/06 02:17:58;;;;;;;13.05;1.33;;;;;;;;;;5046202;28;20069;-74
2023/01/06 02:20:51;;;;;;;5.78;1.40;;;;;;;;;;5023907;28;20041;-74
2023/01/06 02:23:22;;;;;;;8.30;1.20;;;;;;;;;;5018542;28;20037;-74
2023/01/06 02:26:23;;;;;;;7.40;1.27;;;;;;;;;;5022984;28;20038;-74
2023/01/06 02:28:57;;;;;;;8.63;1.35;;;;;;;;;;5016453;28;20053;-74
2023/01/06 02:31:40;;;;;;;8.43;1.30;;;;;;;;;;5030108;28;20072;-75
2023/01/06 02:34:38;;;;;;;9.52;1.60;;;;;;;;;;5043776;28;20042;-74
2023/01/06 02:37:18;;;;;;;4.13;1.38;;;;;;;;;;5026861;28;20042;-74
2023/01/06 02:39:52;;;;;;;8.15;1.17;;;;;;;;;;5026407;28;20404;-74
2023/01/06 02:42:21;;;;;;;3.55;1.35;;;;;;;;;;5025889;28;20064;-74
2023/01/06 02:44:55;;;;;;;2.70;1.08;;;;;;;;;;5019418;28;20048;-74
2023/01/06 02:47:24;;;;;;;;;;;;;;;;;;5025033;28;20489;-75
2023/01/06 02:50:06;;;;;;;12.13;1.27;;;;;;;;;;5019343;28;19917;-74
2023/01/06 02:52:40;;;;;;;9.88;1.30;;;;;;;;;;5014870;28;20040;-75
2023/01/06 02:55:10;;;;;;;8.75;1.48;;;;;;;;;;5027378;28;20044;-74
2023/01/06 02:57:48;;;;;;;8.77;1.30;;;;;;;;;;5045073;28;20042;-74
2023/01/06 03:00:31;;;;;;;6.95;1.60;;;;;;;;;;5010871;28;20103;-74
2023/01/06 03:03:00;;;;;;;12.40;1.52;;;;;;;;;;5018176;28;20049;-74
2023/01/06 03:05:26;;;;;;;10.43;1.70;;;;;;;;;;5032677;28;20481;-74
2023/01/06 03:07:52;;;;;;;9.15;1.55;;;;;;;;;;5025237;28;20451;-74
2023/01/06 03:10:20;;;;;;;5.60;1.45;;;;;;;;;;5015368;28;20112;-74
2023/01/06 03:12:58;;;;;;;3.42;1.15;;;;;;;;;;5022176;28;20069;-74
2023/01/06 03:15:24;;;;;;;6.07;1.75;;;;;;;;;;5017684;28;20045;-75
2023/01/06 03:17:49;;;;;;;13.45;1.65;;;;;;;;;;5027160;28;20037;-74
2023/01/06 03:20:15;;;;;;;7.32;1.50;;;;;;;;;;5025658;28;20033;-74
2023/01/06 03:22:41;;;;;;;13.32;1.80;;;;;;;;;;5025142;28;20180;-74
2023/01/06 03:25:08;;;;;;;12.15;1.90;;;;;;;;;;5018930;28;20034;-74
2023/01/06 03:27:33;;;;;;;12.48;2.15;;;;;;;;;;5015576;28;20037;-74
2023/01/06 03:29:59;;;;;;;9.70;2.42;;;;;;;;;;5021247;28;20061;-74
2023/01/06 03:32:29;;;;;;;20.00;2.42;;;;;;;;;;5018133;28;20042;-74
2023/01/06 03:35:10;;;;;;;16.00;1.80;;;;;;;;;;5021390;28;20041;-74
2023/01/06 03:38:13;;;;;;;5.65;1.67;;;;;;;;;;5019328;28;20038;-75
2023/01/06 03:40:41;;;;;;;15.77;1.90;;;;;;;;;;5023621;28;20025;-74
2023/01/06 03:43:15;;;;;;;12.45;1.92;;;;;;;;;;5026388;28;20076;-74
2023/01/06 03:46:01;;;;;;;18.13;2.20;;;;;;;;;;5024785;28;20036;-74
2023/01/06 03:48:48;;;;;;;11.93;1.60;;;;;;;;;;5035511;28;20038;-75
2023/01/06 03:51:32;;;;;;;12.05;1.92;;;;;;;;;;5031030;28;20449;-74
2023/01/06 03:54:10;;;;;;;6.75;1.60;;;;;;;;;;5014766;28;20092;-74
2023/01/06 03:57:06;;;;;;;13.98;1.52;;;;;;;;;;5023654;28;20037;-74
2023/01/06 03:59:34;;;;;;;8.13;1.80;;;;;;;;;;5022110;28;20053;-75
2023/01/06 04:01:59;;;;;;;11.18;1.65;;;;;;;;;;5025927;28;20042;-74
2023/01/06 04:04:25;;;;;;;12.55;1.73;;;;;;;;;;5025899;28;20052;-75
2023/01/06 04:06:50;;;;;;;12.40;1.98;;;;;;;;;;5022452;28;20465;-74
2023/01/06 04:09:16;;;;;;;16.27;2.40;;;;;;;;;;5033078;28;20115;-74
2023/01/06 04:14:25;;;;;;;8.70;2.38;;;;;;;;;;5032293;28;20100;-75
2023/01/06 04:16:50;;;;;;;24.05;2.15;;;;;;;;;;5026333;28;20045;-74
2023/01/06 04:19:16;;;;;;;12.15;1.63;;;;;;;;;;5018140;28;20109;-74
2023/01/06 04:21:41;;;;;;;19.58;1.77;;;;;;;;;;5029215;28;20032;-74
2023/01/06 04:24:07;;;;;;;10.55;2.10;;;;;;;;;;5028686;28;20037;-74
2023/01/06 04:26:32;;;;;;;21.05;2.20;;;;;;;;;;5023681;28;20069;-74
2023/01/06 04:28:59;;;;;;;20.65;2.42;;;;;;;;;;5022059;28;20034;-74
2023/01/06 04:31:24;;;;;;;18.38;3.17;;;;;;;;;;5026772;28;20482;-75
2023/01/06 04:33:50;;;;;;;14.00;2.63;;;;;;;;;;5028649;28;20124;-74
2023/01/06 04:36:15;;;;;;;7.22;1.90;;;;;;;;;;5032829;28;20458;-74
2023/01/06 04:38:41;;;;;;;12.82;1.88;;;;;;;;;;5032256;28;20042;-74
2023/01/06 04:41:06;;;;;;;14.40;1.90;;;;;;;;;;5033427;28;20385;-74
2023/01/06 04:43:31;;;;;;;10.55;1.45;;;;;;;;;;5026431;28;20453;-74
2023/01/06 04:45:58;;;;;;;15.07;2.20;;;;;;;;;;5023863;28;20033;-74
2023/01/06 04:48:23;;;;;;;14.35;1.85;;;;;;;;;;5020339;28;20044;-74
2023/01/06 04:50:49;;;;;;;15.98;2.05;;;;;;;;;;5018859;28;20050;-75
2023/01/06 04:53:14;;;;;;;18.55;2.58;;;;;;;;;;5031147;28;20067;-74
2023/01/06 04:55:40;;;;;;;22.17;2.15;;;;;;;;;;5029886;28;20042;-74
2023/01/06 04:58:06;;;;;;;11.93;1.70;;;;;;;;;;5027034;28;20045;-74
2023/01/06 05:00:32;;;;;;;6.78;1.48;;;;;;;;;;5021824;28;20045;-75
2023/01/06 05:02:57;;;;;;;17.17;1.85;;;;;;;;;;5027336;28;20110;-74
2023/01/06 05:05:23;;;;;;;19.42;1.70;;;;;;;;;;5022985;28;20038;-75
2023/01/06 05:07:48;;;;;;;11.82;1.30;;;;;;;;;;5030404;28;20041;-74
2023/01/06 05:10:13;;;;;;;17.15;1.65;;;;;;;;;;5026129;28;20045;-74
2023/01/06 05:12:39;;;;;;;20.80;1.77;;;;;;;;;;5027219;28;20037;-74
2023/01/06 05:15:05;;;;;;;25.48;2.08;;;;;;;;;;5022857;28;20041;-75
2023/01/06 05:17:31;;;;;;;14.82;1.42;;;;;;;;;;5020603;28;20037;-75
2023/01/06 05:19:56;;;;;;;8.52;1.65;;;;;;;;;;5020873;28;20409;-74
2023/01/06 05:22:21;;;;;;;18.58;1.50;;;;;;;;;;5029889;28;20044;-75
2023/01/06 05:24:47;;;;;;;29.88;2.05;;;;;;;;;;5024721;28;20454;-74
2023/01/06 05:27:12;;;;;;;20.35;1.60;;;;;;;;;;5028796;28;20038;-74
2023/01/06 05:29:38;;;;;;;15.73;1.35;;;;;;;;;;5033262;28;20080;-74
2023/01/06 05:32:04;;;;;;;16.38;1.30;;;;;;;;;;5032767;28;20464;-74
2023/01/06 05:34:29;;;;;;;9.40;1.23;;;;;;;;;;5022661;28;20076;-74
2023/01/06 05:36:55;;;;;;;13.60;2.08;;;;;;;;;;5022379;28;20113;-75
2023/01/06 05:39:20;;;;;;;10.02;2.17;;;;;;;;;;5019838;28;20065;-74
2023/01/06 05:41:46;;;;;;;21.23;1.30;;;;;;;;;;5026313;28;20033;-75
2023/01/06 05:44:11;;;;;;;11.20;1.30;;;;;;;;;;5022628;28;20096;-74
2023/01/06 05:46:36;;;;;;;11.00;1.42;;;;;;;;;;5022699;28;20040;-75
2023/01/06 05:49:02;;;;;;;14.23;1.38;;;;;;;;;;5019911;28;20382;-74
2023/01/06 05:51:28;;;;;;;8.65;1.90;;;;;;;;;;5028249;28;20470;-74
2023/01/06 05:53:53;;;;;;;9.15;1.13;;;;;;;;;;5024812;28;20477;-74
2023/01/06 05:56:20;;;;;;;11.25;1.23;;;;;;;;;;5024364;28;20104;-74
2023/01/06 05:58:50;;;;;;;9.55;1.10;;;;;;;;;;5024188;28;20616;-74
2023/01/06 06:01:26;;;;;;;22.05;1.30;;;;;;;;;;5030694;28;20037;-74
2023/01/06 06:03:53;;;;;;;19.13;1.52;;;;;;;;;;5050071;28;20041;-74
2023/01/06 06:06:20;;;;;;;19.55;2.00;;;;;;;;;;5018491;28;20092;-74
2023/01/06 06:08:46;;;;;;;13.68;1.35;;;;;;;;;;5027194;28;20627;-74
2023/01/06 06:11:13;;;;;;;11.02;1.25;;;;;;;;;;5026768;28;20045;-74
2023/01/06 06:13:44;;;;;;;15.65;1.35;;;;;;;;;;5026590;28;20068;-75
2023/01/06 06:16:12;;;;;;;17.45;1.95;;;;;;;;;;5025318;28;20030;-74
2023/01/06 06:18:41;;;;;;;21.67;2.00;;;;;;;;;;5026085;28;20046;-74
2023/01/06 06:21:15;;;;;;;12.32;1.52;;;;;;;;;;5014182;28;20045;-75
2023/01/06 06:23:41;;;;;;;15.63;1.60;;;;;;;;;;5028358;28;20046;-74
2023/01/06 06:26:07;;;;;;;17.23;1.55;;;;;;;;;;5020582;28;20041;-74
2023/01/06 06:28:33;;;;;;;19.98;2.10;;;;;;;;;;5018585;28;20034;-74
2023/01/06 06:31:09;;;;;;;10.90;1.23;;;;;;;;;;5024544;28;20072;-74
2023/01/06 06:33:34;;;;;;;13.32;1.98;;;;;;;;;;5014871;28;20482;-75
2023/01/06 06:36:00;;;;;;;27.38;2.35;;;;;;;;;;5016578;28;20042;-74
2023/01/06 06:38:26;;;;;;;12.80;2.13;;;;;;;;;;5019714;28;20466;-74
2023/01/06 06:40:51;;;;;;;29.42;1.92;;;;;;;;;;5023933;28;20041;-74
2023/01/06 06:43:17;;;;;;;17.95;1.95;;;;;;;;;;5019326;28;20133;-74
2023/01/06 06:45:46;;;;;;;25.27;2.28;;;;;;;;;;5019255;28;20056;-74
2023/01/06 06:48:12;;;;;;;19.90;1.70;;;;;;;;;;5015928;28;20096;-74
2023/01/06 06:50:37;;;;;;;19.08;1.58;;;;;;;;;;5024768;28;20496;-74
2023/01/06 06:53:03;;;;;;;14.82;1.40;;;;;;;;;;5020533;28;20029;-74
2023/01/06 06:55:28;;;;;;;20.90;1.58;;;;;;;;;;5023732;28;20072;-75
2023/01/06 06:57:54;;;;;;;16.75;1.83;;;;;;;;;;5030005;28;20052;-74
2023/01/06 07:00:19;;;;;;;13.32;1.42;;;;;;;;;;5027858;28;20080;-74
2023/01/06 07:02:48;;;;;;;12.10;1.42;;;;;;;;;;5016304;28;20373;-74
2023/01/06 07:05:15;;;;;;;16.38;1.75;;;;;;;;;;5027518;28;20037;-74
2023/01/06 07:07:40;;;;;;;19.05;1.25;;;;;;;;;;5023360;28;20084;-74
2023/01/06 07:10:06;;;;;;;12.73;1.30;;;;;;;;;;5027397;28;20045;-74
2023/01/06 07:12:31;;;;;;;19.00;2.60;;;;;;;;;;5030565;28;20413;-74
2023/01/06 07:14:57;;;;;;;16.42;1.35;;;;;;;;;;5032994;28;20040;-74
2023/01/06 07:17:26;;;;;;;19.73;1.88;;;;;;;;;;5031894;28;20056;-74
2023/01/06 07:19:52;;;;;;;21.05;1.55;;;;;;;;;;5031235;28;20474;-74
2023/01/06 07:22:17;;;;;;;18.58;1.55;;;;;;;;;;5031618;28;20035;-74
2023/01/06 07:24:42;;;;;;;22.10;2.60;;;;;;;;;;5034585;28;20439;-75
2023/01/06 07:27:08;;;;;;;18.23;1.25;;;;;;;;;;5034666;28;20048;-75
2023/01/06 07:29:33;;;;;;;20.90;1.70;;;;;;;;;;5035200;28;20099;-74
2023/01/06 07:31:59;;;;;;;17.33;1.83;;;;;;;;;;5032478;28;20043;-74
2023/01/06 07:34:25;;;;;;;15.15;1.60;;;;;;;;;;5037158;28;20413;-74
2023/01/06 07:36:50;;;;;;;18.52;1.50;;;;;;;;;;5033543;28;20033;-74
2023/01/06 07:39:15;;;;;;;15.82;2.03;;;;;;;;;;5031637;28;20478;-75
2023/01/06 07:41:41;;;;;;;14.90;1.63;;;;;;;;;;5033143;28;20044;-74
2023/01/06 07:44:06;;;;;;;13.10;1.10;;;;;;;;;;5028178;28;20469;-74
2023/01/06 07:46:31;;;;;;;8.82;1.50;;;;;;;;;;5029153;28;20040;-75
2023/01/06 07:48:57;;;;;;;11.30;1.17;;;;;;;;;;5030382;28;20038;-74
2023/01/06 07:51:22;;;;;;;23.35;1.30;;;;;;;;;;5030937;28;20112;-74
2023/01/06 07:53:48;;;;;;;9.00;1.17;;;;;;;;;;5024790;28;20038;-75
2023/01/06 07:56:13;;;;;;;14.23;1.13;;;;;;;;;;5031547;28;20060;-74
2023/01/06 07:58:38;;;;;;;20.75;1.90;;;;;;;;;;5025852;28;20462;-75
2023/01/06 08:01:06;;;;;;;16.52;1.52;;;;;;;;;;5034559;28;20046;-75
2023/01/06 08:03:31;;;;;;;15.68;1.42;;;;;;;;;;5025685;28;20092;-75
2023/01/06 08:05:57;;;;;;;9.27;1.10;;;;;;;;;;5026520;28;20417;-74
2023/01/06 08:08:22;;;;;;;12.77;1.13;;;;;;;;;;5022083;28;20034;-75
2023/01/06 08:10:48;;;;;;;3.65;1.10;;;;;;;;;;5028244;28;20056;-74
2023/01/06 08:13:13;;;;;;;13.88;1.38;;;;;;;;;;5028881;28;20062;-74
2023/01/06 08:15:39;;;;;;;16.95;1.00;;;;;;;;;;5028116;28;20037;-74
2023/01/06 08:18:05;;;;;;;4.03;1.17;;;;;;;;;;5022348;28;20042;-74
2023/01/06 08:20:32;;;;;;;5.32;0.90;;;;;;;;;;5029969;28;20041;-75
2023/01/06 08:22:58;;;;;;;25.42;1.50;;;;;;;;;;5031329;28;20442;-74
2023/01/06 08:25:24;;;;;;;6.47;1.17;;;;;;;;;;5023800;28;20099;-76
2023/01/06 08:27:49;;;;;;;8.15;1.10;;;;;;;;;;5026291;28;20030;-74
2023/01/06 08:30:20;;;;;;;12.65;1.25;;;;;;;;;;5030131;28;20052;-74
2023/01/06 08:32:46;;;;;;;10.27;1.38;;;;;;;;;;5022408;28;20037;-74
2023/01/06 08:35:11;;;;;;;11.55;1.08;;;;;;;;;;5019859;28;20418;-74
2023/01/06 08:37:36;;;;;;;7.82;1.13;;;;;;;;;;5020165;28;20030;-74
2023/01/06 08:40:03;;;;;;;9.98;1.30;;;;;;;;;;5034801;28;20067;-74
2023/01/06 08:42:28;;;;;;;10.85;1.00;;;;;;;;;;5022041;28;20037;-74
2023/01/06 08:44:53;;;;;;;4.57;0.90;;;;;;;;;;5026683;28;20034;-74
2023/01/06 08:47:19;;;;;;;8.93;1.63;;;;;;;;;;5027584;28;20475;-75
2023/01/06 08:49:44;;;;;;;13.20;1.10;;;;;;;;;;5015818;28;20052;-75
2023/01/06 08:52:10;;;;;;;8.90;0.70;;;;;;;;;;5029213;28;20075;-74
2023/01/06 08:54:35;;;;;;;8.55;1.05;;;;;;;;;;5027976;28;20403;-75
2023/01/06 08:57:00;;;;;;;6.80;0.57;;;;;;;;;;5029553;28;20113;-74
2023/01/06 08:59:26;;;;;;;6.30;1.05;;;;;;;;;;5030290;28;20573;-76
2023/01/06 09:01:51;;;;;;;7.70;1.27;;;;;;;;;;5009968;28;20777;-75
2023/01/06 09:04:16;;;;;;;12.30;1.33;;;;;;;;;;5026524;28;20029;-75
2023/01/06 09:06:42;;;;;;;10.45;1.30;;;;;;;;;;5030010;28;20505;-75
2023/01/06 09:09:10;;;;;;;11.70;1.58;;;;;;;;;;5029255;28;20036;-75
2023/01/06 09:11:36;;;;;;;9.13;1.98;;;;;;;;;;5016089;28;20037;-75
2023/01/06 09:14:01;;;;;;;12.65;2.80;;;;;;;;;;5014937;28;20041;-75
2023/01/06 09:16:26;;;;;;;7.70;1.95;;;;;;;;;;5026024;28;20046;-75
2023/01/06 09:18:52;;;;;;;14.57;2.25;;;;;;;;;;5015507;28;20034;-75
2023/01/06 09:21:22;;;;;;;13.82;1.33;;;;;;;;;;5022430;28;20417;-75
2023/01/06 09:23:48;;;;;;;8.20;1.20;;;;;;;;;;5015933;28;20034;-75
2023/01/06 09:26:15;;;;;;;10.63;1.80;;;;;;;;;;5031808;28;20035;-74
2023/01/06 09:28:40;;;;;;;10.00;1.45;;;;;;;;;;5035292;28;20052;-74
2023/01/06 09:31:07;;;;;;;7.93;1.45;;;;;;;;;;5026211;28;20037;-75
2023/01/06 09:33:32;;;;;;;6.05;1.50;;;;;;;;;;5020971;28;20034;-75
2023/01/06 09:35:57;;;;;;;18.35;2.17;;;;;;;;;;5025043;28;20041;-74
2023/01/06 09:38:23;;;;;;;11.82;1.65;;;;;;;;;;5021264;28;20033;-75
2023/01/06 09:41:13;;;;;;;10.63;1.48;;;;;;;;;;5026477;28;20473;-76
2023/01/06 09:44:03;;;;;;;9.93;1.38;;;;;;;;;;5019829;28;20045;-76
2023/01/06 09:46:31;;;;;;;8.73;1.20;;;;;;;;;;5022375;28;20076;-74
2023/01/06 09:48:59;;;;;;;12.02;1.20;;;;;;;;;;5029179;28;20045;-77
2023/01/06 09:51:26;;;;;;;13.10;1.30;;;;;;;;;;5024208;28;20033;-75
2023/01/06 09:53:59;;;;;;;9.55;1.10;;;;;;;;;;5030009;28;20041;-75
2023/01/06 09:56:24;;;;;;;6.05;1.13;;;;;;;;;;5011247;28;20605;-75
2023/01/06 09:59:05;;;;;;;4.25;1.08;;;;;;;;;;5012947;28;20113;-75
2023/01/06 10:01:36;;;;;;;15.65;1.55;;;;;;;;;;5018249;28;20124;-76
2023/01/06 10:04:02;;;;;;;12.02;1.70;;;;;;;;;;5025695;28;20039;-76
2023/01/06 10:06:43;;;;;;;9.85;1.60;;;;;;;;;;5007163;28;20038;-75
2023/01/06 10:09:43;;;;;;;3.95;0.93;;;;;;;;;;5015443;28;20041;-75
2023/01/06 10:12:42;;;;;;;3.15;0.68;;;;;;;;;;5012624;28;20030;-76
2023/01/06 10:15:35;;;;;;;5.05;1.10;;;;;;;;;;5005928;28;20038;-74
2023/01/06 10:18:30;;;;;;;7.50;1.58;;;;;;;;;;5017593;28;20037;-75
2023/01/06 10:21:08;;;;;;;5.75;1.42;;;;;;;;;;5002522;28;20144;-75
2023/01/06 10:23:39;;;;;;;3.63;0.80;;;;;;;;;;5021008;28;20517;-75
2023/01/06 10:26:13;;;;;;;12.73;1.40;;;;;;;;;;5000399;28;20374;-75
2023/01/06 10:28:43;;;;;;;9.13;1.42;;;;;;;;;;5009742;28;20067;-75
2023/01/06 10:31:15;;;;;;;4.05;0.77;;;;;;;;;;5021988;28;20076;-74
2023/01/06 10:33:49;;;;;;;7.05;0.82;;;;;;;;;;5022444;28;20420;-75
2023/01/06 10:36:17;;;;;;;4.18;0.77;;;;;;;;;;5022683;28;20155;-75
2023/01/06 10:38:44;;;;;;;6.40;0.77;;;;;;;;;;5024357;28;20037;-74
2023/01/06 10:41:47;;;;;;;5.20;0.70;;;;;;;;;;5016005;28;20042;-74
2023/01/06 10:44:13;;;;;;;6.68;1.30;;;;;;;;;;5017522;28;20037;-75
2023/01/06 10:46:40;;;;;;;8.32;1.05;;;;;;;;;;5012483;28;20096;-75
2023/01/06 10:49:18;;;;;;;4.50;1.00;;;;;;;;;;5016358;28;20033;-75
2023/01/06 10:51:56;;;;;;;5.28;1.38;;;;;;;;;;5015569;28;20038;-76
2023/01/06 10:54:28;;;;;;;7.82;0.82;;;;;;;;;;5010723;28;20034;-75
2023/01/06 10:57:02;;;;;;;13.10;1.48;;;;;;;;;;5015431;28;20501;-75
2023/01/06 10:59:28;;;;;;;2.72;0.77;;;;;;;;;;5023672;28;20528;-75
2023/01/06 11:01:55;;;;;;;2.55;0.63;;;;;;;;;;5019077;28;20045;-75
2023/01/06 11:04:22;;;;;;;7.90;1.35;;;;;;;;;;5002027;28;20113;-76
2023/01/06 11:06:53;;;;;;;4.63;1.17;;;;;;;;;;5012543;28;20029;-75
2023/01/06 11:09:28;;;;;;;4.10;0.90;;;;;;;;;;5025444;28;20045;-75
2023/01/06 11:11:54;;;;;;;10.82;0.93;;;;;;;;;;5016182;28;20386;-75
2023/01/06 11:14:23;;;;;;;4.75;1.20;;;;;;;;;;5033472;28;20504;-75
2023/01/06 11:17:01;;;;;;;7.07;0.90;;;;;;;;;;5018038;28;20131;-75
2023/01/06 11:19:45;;;;;;;4.15;1.10;;;;;;;;;;5020168;28;20041;-75
2023/01/06 11:22:37;;;;;;;2.72;0.98;;;;;;;;;;5017309;28;20101;-75
2023/01/06 11:25:22;;;;;;;4.38;0.95;;;;;;;;;;5010385;28;20046;-76
2023/01/06 11:28:08;;;;;;;4.20;1.00;;;;;;;;;;5024364;28;20034;-75
2023/01/06 11:31:03;;;;;;;4.95;1.05;;;;;;;;;;5024030;28;20033;-75
2023/01/06 11:33:31;;;;;;;6.15;1.02;;;;;;;;;;5009557;28;20049;-75
2023/01/06 11:35:57;;;;;;;5.03;0.70;;;;;;;;;;5016896;28;20366;-75
2023/01/06 11:38:22;;;;;;;5.78;0.80;;;;;;;;;;5014776;28;20386;-74
2023/01/06 11:40:49;;;;;;;5.45;1.00;;;;;;;;;;5021907;28;20034;-75
2023/01/06 11:43:20;;;;;;;4.85;1.10;;;;;;;;;;5020303;28;20397;-75
2023/01/06 11:45:53;;;;;;;17.60;1.30;;;;;;;;;;5016540;28;20462;-76
2023/01/06 11:48:28;;;;;;;7.70;1.33;;;;;;;;;;5022990;28;20050;-75
2023/01/06 11:51:00;;;;;;;11.10;1.83;;;;;;;;;;5016706;28;20050;-75
2023/01/06 11:53:28;;;;;;;8.02;1.60;;;;;;;;;;5020437;28;20436;-74
2023/01/06 11:56:03;;;;;;;7.80;1.27;;;;;;;;;;5020425;28;20461;-75
2023/01/06 11:58:38;;;;;;;14.02;1.77;;;;;;;;;;5013299;28;20121;-75
2023/01/06 12:01:15;;;;;;;8.00;1.05;;;;;;;;;;5025005;28;20041;-75
2023/01/06 12:03:41;;;;;;;9.55;1.15;;;;;;;;;;5012234;28;20038;-74
2023/01/06 12:06:13;;;;;;;8.30;1.30;;;;;;;;;;5019651;28;20042;-74
2023/01/06 12:09:08;;;;;;;4.15;0.80;;;;;;;;;;5014698;28;20044;-75
2023/01/06 12:11:39;;;;;;;6.00;1.20;;;;;;;;;;5004159;28;20037;-75
2023/01/06 12:14:04;;;;;;;6.47;0.52;;;;;;;;;;5019902;28;20053;-75
2023/01/06 12:17:02;;;;;;;7.72;1.40;;;;;;;;;;5019007;28;20030;-76
2023/01/06 12:19:33;;;;;;;5.10;0.95;;;;;;;;;;4988788;28;20144;-76
2023/01/06 12:21:59;;;;;;;6.75;0.82;;;;;;;;;;5023566;28;20042;-74
2023/01/06 12:24:25;;;;;;;5.93;1.00;;;;;;;;;;5016158;28;20045;-75
2023/01/06 12:26:51;;;;;;;12.30;1.50;;;;;;;;;;5014494;28;20042;-74
2023/01/06 12:29:19;;;;;;;7.88;1.67;;;;;;;;;;5009469;28;20385;-74
2023/01/06 12:31:53;;;;;;;6.70;1.95;;;;;;;;;;5020544;28;20092;-74
2023/01/06 12:34:32;;;;;;;6.03;1.38;;;;;;;;;;5020163;28;20436;-75
2023/01/06 12:37:03;;;;;;;3.22;0.70;;;;;;;;;;5017076;28;20046;-75
2023/01/06 12:39:44;;;;;;;6.70;1.73;;;;;;;;;;5022764;28;20124;-75
2023/01/06 12:42:31;;;;;;;7.50;1.40;;;;;;;;;;5018733;28;20030;-75
2023/01/06 12:45:07;;;;;;;9.38;1.48;;;;;;;;;;5012698;28;20033;-75
2023/01/06 12:47:40;;;;;;;8.95;1.15;;;;;;;;;;5016475;28;20041;-75
2023/01/06 12:50:05;;;;;;;5.13;1.10;;;;;;;;;;5010857;28;20056;-76
2023/01/06 12:52:35;;;;;;;9.70;2.10;;;;;;;;;;5019903;28;20389;-75
2023/01/06 12:55:01;;;;;;;7.15;1.48;;;;;;;;;;5019029;28;20033;-74
2023/01/06 12:57:50;;;;;;;11.02;1.90;;;;;;;;;;5018182;28;20048;-75
2023/01/06 13:00:35;;;;;;;8.30;2.38;;;;;;;;;;5005592;28;20378;-75
2023/01/06 13:03:08;;;;;;;;;;;;;;;;;;5006686;28;20037;-74
2023/01/06 13:05:48;;;;;;;10.77;1.50;;;;;;;;;;5010955;28;19922;-76
2023/01/06 13:08:17;;;;;;;5.93;1.00;;;;;;;;;;5014650;28;20037;-76
2023/01/06 13:10:46;;;;;;;5.07;1.17;;;;;;;;;;5012803;28;20124;-76
2023/01/06 13:13:30;;;;;;;7.43;1.17;;;;;;;;;;5013827;28;20034;-75
2023/01/06 13:15:56;;;;;;;;;;;;;;;;;;5014645;28;20045;-75
2023/01/06 13:18:32;;;;;;;12.27;2.03;;;;;;;;;;5026776;28;19967;-74
2023/01/06 13:21:07;;;;;;;7.60;2.10;;;;;;;;;;5010384;28;20435;-75
2023/01/06 13:23:42;;;;;;;5.25;1.30;;;;;;;;;;5015875;28;20397;-76
2023/01/06 13:26:17;;;;;;;5.72;1.27;;;;;;;;;;5019247;28;20412;-75
2023/01/06 13:29:17;;;;;;;12.63;1.50;;;;;;;;;;5018009;28;20046;-75
2023/01/06 13:32:16;;;;;;;9.73;1.45;;;;;;;;;;5025303;28;20037;-74
2023/01/06 13:34:58;;;;;;;7.22;1.13;;;;;;;;;;5010118;28;20106;-75
2023/01/06 13:37:40;;;;;;;2.90;1.00;;;;;;;;;;5023586;28;20057;-74
2023/01/06 13:40:08;;;;;;;9.55;1.48;;;;;;;;;;5020569;28;20041;-75
2023/01/06 13:42:41;;;;;;;5.20;1.20;;;;;;;;;;5019678;28;20046;-75
2023/01/06 13:45:13;;;;;;;4.10;0.97;;;;;;;;;;5013643;28;20045;-75
2023/01/06 13:47:40;;;;;;;5.80;1.25;;;;;;;;;;5015748;28;20046;-76
2023/01/06 13:50:05;;;;;;;6.45;1.40;;;;;;;;;;5010828;28;20057;-77
2023/01/06 13:52:31;;;;;;;3.67;1.10;;;;;;;;;;5006179;28;20049;-75
2023/01/06 13:55:01;;;;;;;4.38;1.02;;;;;;;;;;5015888;28;20038;-75
2023/01/06 13:57:34;;;;;;;3.75;1.02;;;;;;;;;;5028448;28;20046;-75
2023/01/06 14:00:02;;;;;;;3.10;0.82;;;;;;;;;;5020126;28;20493;-76
2023/01/06 14:02:30;;;;;;;7.03;1.33;;;;;;;;;;5007668;28;20069;-75
2023/01/06 14:04:56;;;;;;;5.18;0.80;;;;;;;;;;5021708;28;20039;-75
2023/01/06 14:07:38;;;;;;;3.70;0.90;;;;;;;;;;5021180;28;20045;-75
2023/01/06 14:10:06;;;;;;;4.63;1.40;;;;;;;;;;5026897;28;20417;-75
2023/01/06 14:12:34;;;;;;;11.38;1.17;;;;;;;;;;5023682;28;20060;-76
2023/01/06 14:15:04;;;;;;;12.00;1.50;;;;;;;;;;5005305;28;20425;-75
2023/01/06 14:17:39;;;;;;;5.85;0.95;;;;;;;;;;5019762;28;20073;-75
2023/01/06 14:20:06;;;;;;;6.85;1.48;;;;;;;;;;5011057;28;20502;-75
2023/01/06 14:22:32;;;;;;;7.57;0.70;;;;;;;;;;5009880;28;20383;-75
2023/01/06 14:25:04;;;;;;;6.80;0.90;;;;;;;;;;5014859;28;20527;-75
2023/01/06 14:27:44;;;;;;;2.35;0.80;;;;;;;;;;5023835;28;20044;-75
2023/01/06 14:30:20;;;;;;;5.40;0.80;;;;;;;;;;5014968;28;20034;-75
2023/01/06 14:32:45;;;;;;;6.07;1.20;;;;;;;;;;5019073;28;20500;-75
2023/01/06 14:35:13;;;;;;;5.72;1.00;;;;;;;;;;5016049;28;20026;-74
2023/01/06 14:37:49;;;;;;;8.35;1.20;;;;;;;;;;5008649;28;20088;-76
2023/01/06 14:40:36;;;;;;;7.13;1.50;;;;;;;;;;5010269;28;20444;-74
2023/01/06 14:43:25;;;;;;;16.50;1.55;;;;;;;;;;5042947;28;20033;-75
2023/01/06 14:45:51;;;;;;;4.05;0.90;;;;;;;;;;5019875;28;20042;-74
2023/01/06 14:48:19;;;;;;;4.97;1.20;;;;;;;;;;5019390;28;20053;-75
2023/01/06 14:50:57;;;;;;;7.07;1.30;;;;;;;;;;5010520;28;20053;-76
2023/01/06 14:53:29;;;;;;;3.85;1.10;;;;;;;;;;5018188;28;20041;-75
2023/01/06 14:55:54;;;;;;;3.40;1.20;;;;;;;;;;5053665;28;20018;-74
2023/01/06 14:58:35;;;;;;;5.72;1.20;;;;;;;;;;5019519;28;20107;-76
2023/01/06 15:01:02;;;;;;;9.10;1.30;;;;;;;;;;5003829;28;20033;-75
2023/01/06 15:03:29;;;;;;;8.95;1.63;;;;;;;;;;5012855;28;20044;-75